< Typhoon 195703 1957 Season Typhoon 195705 >
Typhoon 195704 (TRIX)
General InformationTrack Information on Google Maps || Disaster Info.ResourceGoogle EarthGE AnimationAtom FeedGeoJSON
Detalied Best Track (Time Zone = UTC)
Year Month Day Hour Lat. Long. Pressure (hPa) Wind (kt) Class Image Chart
1957 5 2 06 3.7 154.7 990 0 9 -- Chart
1957 5 2 12 4.3 155.1 990 0 9 -- Chart
1957 5 2 18 5.2 155.2 985 0 9 -- Chart
1957 5 3 00 5.6 155.5 980 0 9 -- Chart
1957 5 3 06 5.7 155.7 985 0 9 -- Chart
1957 5 3 12 5.8 155.9 990 0 9 -- Chart
1957 5 3 18 6.3 155.9 980 0 9 -- Chart
1957 5 4 00 6.8 155.8 975 0 9 -- Chart
1957 5 4 06 7.4 155.5 970 0 9 -- Chart
1957 5 4 12 8.0 155.5 970 0 9 -- Chart
1957 5 4 18 8.5 155.8 970 0 9 -- Chart
1957 5 5 00 9.3 155.8 960 0 9 -- Chart
1957 5 5 06 9.9 155.4 950 0 9 -- Chart
1957 5 5 12 10.5 154.9 955 0 9 -- Chart
1957 5 5 18 11.2 154.6 960 0 9 -- Chart
1957 5 6 00 11.8 153.9 960 0 9 -- Chart
1957 5 6 06 12.5 152.4 960 0 9 -- Chart
1957 5 6 12 13.3 151.7 960 0 9 -- Chart
1957 5 6 18 14.1 150.6 960 0 9 -- Chart
1957 5 7 00 14.6 149.9 955 0 9 -- Chart
1957 5 7 06 15.4 148.7 955 0 9 -- Chart
1957 5 7 12 16.3 147.5 950 0 9 -- Chart
1957 5 7 18 16.9 146.7 955 0 9 -- Chart
1957 5 8 00 17.8 145.8 955 0 9 -- Chart
1957 5 8 06 18.6 145.1 950 0 9 -- Chart
1957 5 8 12 19.6 144.8 955 0 9 -- Chart
1957 5 8 18 20.2 144.2 955 0 9 -- Chart
1957 5 9 00 20.7 144.2 960 0 9 -- Chart
1957 5 9 06 21.3 144.4 960 0 9 -- Chart
1957 5 9 12 21.7 144.9 965 0 9 -- Chart
1957 5 9 18 21.9 145.2 965 0 9 -- Chart
1957 5 10 00 22.0 146.4 975 0 9 -- Chart
1957 5 10 06 22.6 147.0 975 0 9 -- Chart
1957 5 10 12 22.6 147.6 975 0 9 -- Chart
1957 5 10 18 22.1 148.3 975 0 9 -- Chart
1957 5 11 00 21.9 149.5 975 0 9 -- Chart
1957 5 11 06 21.9 150.4 970 0 9 -- Chart
1957 5 11 12 21.9 151.2 970 0 9 -- Chart
1957 5 11 18 21.8 152.1 970 0 9 -- Chart
1957 5 12 00 22.0 153.0 970 0 9 -- Chart
1957 5 12 06 22.2 154.2 970 0 9 -- Chart
1957 5 12 12 22.6 155.3 970 0 9 -- Chart
1957 5 12 18 22.9 156.3 970 0 9 -- Chart
1957 5 13 00 23.5 157.4 975 0 9 -- Chart
1957 5 13 06 23.9 157.9 975 0 9 -- Chart
1957 5 13 12 24.1 158.5 975 0 9 -- Chart
1957 5 13 18 24.5 159.3 975 0 9 -- Chart
1957 5 14 00 25.1 160.1 980 0 9 -- Chart
1957 5 14 06 26.2 161.8 990 0 9 -- Chart
1957 5 14 12 27.0 163.2 990 0 9 -- Chart
1957 5 14 18 27.9 165.1 990 0 9 -- Chart
1957 5 15 00 28.6 166.5 990 0 9 -- Chart
1957 5 15 06 29.3 168.2 990 0 9 -- Chart
1957 5 15 12 30.2 170.6 990 0 9 -- Chart
1957 5 15 18 31.1 173.1 995 0 9 -- Chart
1957 5 16 00 33.1 175.8 1000 0 2 -- Chart
1957 5 16 06 35.0 179.0 1004 0 2 -- Chart
Japan Meteorological Agency Best Track Data | Correction Date : 1989-06-01
< Typhoon 195703 1957 Season Typhoon 195705 >

Help